sensor_id;sensor_type;location;lat;lon;timestamp;P1;durP1;ratioP1;P2;durP2;ratioP2
31308;SDS011;17936;52.446;10.840;2023-04-24T00:01:49;5.25;;;2.55;;
31308;SDS011;17936;52.446;10.840;2023-04-24T00:04:15;2.83;;;2.05;;
31308;SDS011;17936;52.446;10.840;2023-04-24T00:06:42;4.10;;;1.80;;
31308;SDS011;17936;52.446;10.840;2023-04-24T00:09:08;2.65;;;1.67;;
31308;SDS011;17936;52.446;10.840;2023-04-24T00:11:37;4.32;;;1.60;;
31308;SDS011;17936;52.446;10.840;2023-04-24T00:14:03;3.58;;;2.05;;
31308;SDS011;17936;52.446;10.840;2023-04-24T00:16:28;2.05;;;1.45;;
31308;SDS011;17936;52.446;10.840;2023-04-24T00:18:54;5.05;;;2.15;;
31308;SDS011;17936;52.446;10.840;2023-04-24T00:21:19;8.93;;;1.45;;
31308;SDS011;17936;52.446;10.840;2023-04-24T00:23:46;3.35;;;1.40;;
31308;SDS011;17936;52.446;10.840;2023-04-24T00:26:12;6.03;;;1.60;;
31308;SDS011;17936;52.446;10.840;2023-04-24T00:28:37;2.35;;;1.52;;
31308;SDS011;17936;52.446;10.840;2023-04-24T00:31:03;4.13;;;1.65;;
31308;SDS011;17936;52.446;10.840;2023-04-24T00:33:28;2.63;;;1.48;;
31308;SDS011;17936;52.446;10.840;2023-04-24T00:35:54;2.72;;;1.40;;
31308;SDS011;17936;52.446;10.840;2023-04-24T00:38:20;3.05;;;1.60;;
31308;SDS011;17936;52.446;10.840;2023-04-24T00:40:46;2.17;;;1.33;;
31308;SDS011;17936;52.446;10.840;2023-04-24T00:43:13;4.53;;;1.35;;
31308;SDS011;17936;52.446;10.840;2023-04-24T00:45:38;1.67;;;1.10;;
31308;SDS011;17936;52.446;10.840;2023-04-24T00:48:04;4.20;;;1.73;;
31308;SDS011;17936;52.446;10.840;2023-04-24T00:50:31;2.65;;;1.50;;
31308;SDS011;17936;52.446;10.840;2023-04-24T00:52:57;3.55;;;1.05;;
31308;SDS011;17936;52.446;10.840;2023-04-24T00:55:22;4.50;;;1.48;;
31308;SDS011;17936;52.446;10.840;2023-04-24T00:57:49;3.08;;;1.55;;
31308;SDS011;17936;52.446;10.840;2023-04-24T01:00:15;1.77;;;1.23;;
31308;SDS011;17936;52.446;10.840;2023-04-24T01:02:43;2.10;;;1.13;;
31308;SDS011;17936;52.446;10.840;2023-04-24T01:05:10;1.33;;;1.05;;
31308;SDS011;17936;52.446;10.840;2023-04-24T01:07:36;2.00;;;1.20;;
31308;SDS011;17936;52.446;10.840;2023-04-24T01:10:05;2.53;;;1.33;;
31308;SDS011;17936;52.446;10.840;2023-04-24T01:12:33;1.67;;;1.17;;
31308;SDS011;17936;52.446;10.840;2023-04-24T01:14:58;0.90;;;0.90;;
31308;SDS011;17936;52.446;10.840;2023-04-24T01:17:24;3.53;;;1.00;;
31308;SDS011;17936;52.446;10.840;2023-04-24T01:19:50;2.25;;;1.25;;
31308;SDS011;17936;52.446;10.840;2023-04-24T01:22:18;2.25;;;0.80;;
31308;SDS011;17936;52.446;10.840;2023-04-24T01:24:45;1.60;;;1.10;;
31308;SDS011;17936;52.446;10.840;2023-04-24T01:27:11;1.52;;;1.00;;
31308;SDS011;17936;52.446;10.840;2023-04-24T01:29:37;2.00;;;1.10;;
31308;SDS011;17936;52.446;10.840;2023-04-24T01:32:03;1.83;;;1.10;;
31308;SDS011;17936;52.446;10.840;2023-04-24T01:34:30;1.50;;;0.90;;
31308;SDS011;17936;52.446;10.840;2023-04-24T01:36:56;3.97;;;1.00;;
31308;SDS011;17936;52.446;10.840;2023-04-24T01:39:21;1.50;;;0.90;;
31308;SDS011;17936;52.446;10.840;2023-04-24T01:41:51;2.88;;;0.88;;
31308;SDS011;17936;52.446;10.840;2023-04-24T01:44:17;3.03;;;1.15;;
31308;SDS011;17936;52.446;10.840;2023-04-24T01:46:43;0.75;;;0.75;;
31308;SDS011;17936;52.446;10.840;2023-04-24T01:49:09;1.45;;;1.08;;
31308;SDS011;17936;52.446;10.840;2023-04-24T01:51:34;7.50;;;0.90;;
31308;SDS011;17936;52.446;10.840;2023-04-24T01:54:00;1.08;;;0.70;;
31308;SDS011;17936;52.446;10.840;2023-04-24T01:56:25;2.08;;;0.95;;
31308;SDS011;17936;52.446;10.840;2023-04-24T01:58:54;1.67;;;0.80;;
31308;SDS011;17936;52.446;10.840;2023-04-24T02:01:21;3.30;;;1.15;;
31308;SDS011;17936;52.446;10.840;2023-04-24T02:03:48;5.32;;;0.88;;
31308;SDS011;17936;52.446;10.840;2023-04-24T02:06:13;2.63;;;0.80;;
31308;SDS011;17936;52.446;10.840;2023-04-24T02:08:39;2.60;;;1.10;;
31308;SDS011;17936;52.446;10.840;2023-04-24T02:11:04;1.20;;;0.70;;
31308;SDS011;17936;52.446;10.840;2023-04-24T02:13:30;1.23;;;0.82;;
31308;SDS011;17936;52.446;10.840;2023-04-24T02:15:57;1.88;;;0.85;;
31308;SDS011;17936;52.446;10.840;2023-04-24T02:18:23;4.10;;;0.90;;
31308;SDS011;17936;52.446;10.840;2023-04-24T02:20:49;2.03;;;0.70;;
31308;SDS011;17936;52.446;10.840;2023-04-24T02:23:14;1.05;;;0.70;;
31308;SDS011;17936;52.446;10.840;2023-04-24T02:25:40;2.80;;;0.90;;
31308;SDS011;17936;52.446;10.840;2023-04-24T02:28:05;4.57;;;1.02;;
31308;SDS011;17936;52.446;10.840;2023-04-24T02:30:31;2.55;;;0.98;;
31308;SDS011;17936;52.446;10.840;2023-04-24T02:32:57;0.98;;;0.85;;
31308;SDS011;17936;52.446;10.840;2023-04-24T02:35:22;0.70;;;0.70;;
31308;SDS011;17936;52.446;10.840;2023-04-24T02:37:48;1.23;;;0.85;;
31308;SDS011;17936;52.446;10.840;2023-04-24T02:40:13;3.10;;;0.90;;
31308;SDS011;17936;52.446;10.840;2023-04-24T02:42:39;1.77;;;0.90;;
31308;SDS011;17936;52.446;10.840;2023-04-24T02:45:04;1.00;;;0.60;;
31308;SDS011;17936;52.446;10.840;2023-04-24T02:47:30;0.95;;;0.75;;
31308;SDS011;17936;52.446;10.840;2023-04-24T02:49:56;1.63;;;0.85;;
31308;SDS011;17936;52.446;10.840;2023-04-24T02:52:21;1.63;;;0.60;;
31308;SDS011;17936;52.446;10.840;2023-04-24T02:54:47;1.13;;;0.80;;
31308;SDS011;17936;52.446;10.840;2023-04-24T02:57:12;1.02;;;0.70;;
31308;SDS011;17936;52.446;10.840;2023-04-24T02:59:38;1.10;;;0.57;;
31308;SDS011;17936;52.446;10.840;2023-04-24T03:02:03;1.00;;;0.55;;
31308;SDS011;17936;52.446;10.840;2023-04-24T03:04:29;2.92;;;0.70;;
31308;SDS011;17936;52.446;10.840;2023-04-24T03:06:54;3.17;;;0.98;;
31308;SDS011;17936;52.446;10.840;2023-04-24T03:09:20;1.40;;;0.77;;
31308;SDS011;17936;52.446;10.840;2023-04-24T03:11:46;1.40;;;0.90;;
31308;SDS011;17936;52.446;10.840;2023-04-24T03:14:12;2.75;;;0.93;;
31308;SDS011;17936;52.446;10.840;2023-04-24T03:16:37;1.75;;;0.80;;
31308;SDS011;17936;52.446;10.840;2023-04-24T03:19:03;2.15;;;0.90;;
31308;SDS011;17936;52.446;10.840;2023-04-24T03:21:28;0.95;;;0.73;;
31308;SDS011;17936;52.446;10.840;2023-04-24T03:23:54;1.88;;;1.00;;
31308;SDS011;17936;52.446;10.840;2023-04-24T03:26:19;1.00;;;0.75;;
31308;SDS011;17936;52.446;10.840;2023-04-24T03:28:45;1.50;;;0.93;;
31308;SDS011;17936;52.446;10.840;2023-04-24T03:31:10;1.08;;;0.80;;
31308;SDS011;17936;52.446;10.840;2023-04-24T03:33:36;0.95;;;0.80;;
31308;SDS011;17936;52.446;10.840;2023-04-24T03:36:02;1.50;;;1.08;;
31308;SDS011;17936;52.446;10.840;2023-04-24T03:38:28;2.00;;;1.00;;
31308;SDS011;17936;52.446;10.840;2023-04-24T03:40:53;1.55;;;0.80;;
31308;SDS011;17936;52.446;10.840;2023-04-24T03:43:18;2.20;;;1.00;;
31308;SDS011;17936;52.446;10.840;2023-04-24T03:45:44;1.60;;;0.77;;
31308;SDS011;17936;52.446;10.840;2023-04-24T03:48:10;1.50;;;0.90;;
31308;SDS011;17936;52.446;10.840;2023-04-24T03:50:35;3.13;;;0.80;;
31308;SDS011;17936;52.446;10.840;2023-04-24T03:53:01;0.82;;;0.70;;
31308;SDS011;17936;52.446;10.840;2023-04-24T03:55:26;1.00;;;0.88;;
31308;SDS011;17936;52.446;10.840;2023-04-24T03:57:52;0.98;;;0.80;;
31308;SDS011;17936;52.446;10.840;2023-04-24T04:00:17;1.27;;;0.80;;
31308;SDS011;17936;52.446;10.840;2023-04-24T04:02:43;2.17;;;0.80;;
31308;SDS011;17936;52.446;10.840;2023-04-24T04:05:09;0.90;;;0.80;;
31308;SDS011;17936;52.446;10.840;2023-04-24T04:07:34;1.75;;;0.75;;
31308;SDS011;17936;52.446;10.840;2023-04-24T04:10:00;1.33;;;0.65;;
31308;SDS011;17936;52.446;10.840;2023-04-24T04:12:25;1.52;;;0.70;;
31308;SDS011;17936;52.446;10.840;2023-04-24T04:14:51;1.58;;;0.93;;
31308;SDS011;17936;52.446;10.840;2023-04-24T04:17:16;1.42;;;0.68;;
31308;SDS011;17936;52.446;10.840;2023-04-24T04:19:42;0.95;;;0.80;;
31308;SDS011;17936;52.446;10.840;2023-04-24T04:22:08;1.90;;;0.68;;
31308;SDS011;17936;52.446;10.840;2023-04-24T04:24:33;1.70;;;0.85;;
31308;SDS011;17936;52.446;10.840;2023-04-24T04:27:02;1.75;;;0.80;;
31308;SDS011;17936;52.446;10.840;2023-04-24T04:29:31;2.38;;;1.05;;
31308;SDS011;17936;52.446;10.840;2023-04-24T04:31:57;3.05;;;0.88;;
31308;SDS011;17936;52.446;10.840;2023-04-24T04:34:23;1.42;;;0.80;;
31308;SDS011;17936;52.446;10.840;2023-04-24T04:36:49;2.15;;;1.00;;
31308;SDS011;17936;52.446;10.840;2023-04-24T04:39:15;1.00;;;0.77;;
31308;SDS011;17936;52.446;10.840;2023-04-24T04:41:41;1.50;;;0.70;;
31308;SDS011;17936;52.446;10.840;2023-04-24T04:44:07;1.02;;;0.80;;
31308;SDS011;17936;52.446;10.840;2023-04-24T04:46:33;1.73;;;1.00;;
31308;SDS011;17936;52.446;10.840;2023-04-24T04:49:01;0.98;;;0.77;;
31308;SDS011;17936;52.446;10.840;2023-04-24T04:51:27;1.50;;;0.80;;
31308;SDS011;17936;52.446;10.840;2023-04-24T04:53:52;2.53;;;1.02;;
31308;SDS011;17936;52.446;10.840;2023-04-24T04:56:18;2.30;;;1.02;;
31308;SDS011;17936;52.446;10.840;2023-04-24T04:58:44;3.22;;;0.90;;
31308;SDS011;17936;52.446;10.840;2023-04-24T05:01:09;1.05;;;0.80;;
31308;SDS011;17936;52.446;10.840;2023-04-24T05:03:35;2.42;;;0.88;;
31308;SDS011;17936;52.446;10.840;2023-04-24T05:06:01;1.35;;;0.95;;
31308;SDS011;17936;52.446;10.840;2023-04-24T05:08:27;2.03;;;0.90;;
31308;SDS011;17936;52.446;10.840;2023-04-24T05:10:52;1.77;;;0.95;;
31308;SDS011;17936;52.446;10.840;2023-04-24T05:13:18;1.55;;;0.70;;
31308;SDS011;17936;52.446;10.840;2023-04-24T05:15:44;4.22;;;1.00;;
31308;SDS011;17936;52.446;10.840;2023-04-24T05:18:10;3.92;;;1.00;;
31308;SDS011;17936;52.446;10.840;2023-04-24T05:20:35;1.95;;;0.90;;
31308;SDS011;17936;52.446;10.840;2023-04-24T05:23:00;0.73;;;0.70;;
31308;SDS011;17936;52.446;10.840;2023-04-24T05:25:26;0.55;;;0.45;;
31308;SDS011;17936;52.446;10.840;2023-04-24T05:27:52;1.23;;;0.68;;
31308;SDS011;17936;52.446;10.840;2023-04-24T05:30:18;2.92;;;0.90;;
31308;SDS011;17936;52.446;10.840;2023-04-24T05:32:44;2.05;;;0.90;;
31308;SDS011;17936;52.446;10.840;2023-04-24T05:35:10;3.28;;;0.95;;
31308;SDS011;17936;52.446;10.840;2023-04-24T05:37:35;1.30;;;0.80;;
31308;SDS011;17936;52.446;10.840;2023-04-24T05:40:01;2.83;;;1.20;;
31308;SDS011;17936;52.446;10.840;2023-04-24T05:42:26;1.92;;;0.68;;
31308;SDS011;17936;52.446;10.840;2023-04-24T05:44:52;1.38;;;0.70;;
31308;SDS011;17936;52.446;10.840;2023-04-24T05:47:19;1.38;;;0.68;;
31308;SDS011;17936;52.446;10.840;2023-04-24T05:49:46;0.88;;;0.52;;
31308;SDS011;17936;52.446;10.840;2023-04-24T05:52:12;2.20;;;0.70;;
31308;SDS011;17936;52.446;10.840;2023-04-24T05:54:37;0.77;;;0.57;;
31308;SDS011;17936;52.446;10.840;2023-04-24T05:57:03;1.58;;;0.60;;
31308;SDS011;17936;52.446;10.840;2023-04-24T05:59:32;0.75;;;0.60;;
31308;SDS011;17936;52.446;10.840;2023-04-24T06:01:58;1.42;;;0.68;;
31308;SDS011;17936;52.446;10.840;2023-04-24T06:04:24;0.75;;;0.50;;
31308;SDS011;17936;52.446;10.840;2023-04-24T06:06:50;1.20;;;0.68;;
31308;SDS011;17936;52.446;10.840;2023-04-24T06:09:20;0.50;;;0.50;;
31308;SDS011;17936;52.446;10.840;2023-04-24T06:11:49;0.85;;;0.60;;
31308;SDS011;17936;52.446;10.840;2023-04-24T06:14:17;3.72;;;1.13;;
31308;SDS011;17936;52.446;10.840;2023-04-24T06:16:43;1.98;;;0.75;;
31308;SDS011;17936;52.446;10.840;2023-04-24T06:19:09;0.77;;;0.70;;
31308;SDS011;17936;52.446;10.840;2023-04-24T06:21:34;1.42;;;0.60;;
31308;SDS011;17936;52.446;10.840;2023-04-24T06:24:00;2.20;;;0.63;;
31308;SDS011;17936;52.446;10.840;2023-04-24T06:26:25;2.63;;;0.85;;
31308;SDS011;17936;52.446;10.840;2023-04-24T06:28:51;1.05;;;0.68;;
31308;SDS011;17936;52.446;10.840;2023-04-24T06:31:18;2.10;;;0.68;;
31308;SDS011;17936;52.446;10.840;2023-04-24T06:33:44;1.63;;;0.55;;
31308;SDS011;17936;52.446;10.840;2023-04-24T06:36:10;1.90;;;0.70;;
31308;SDS011;17936;52.446;10.840;2023-04-24T06:38:36;2.22;;;0.65;;
31308;SDS011;17936;52.446;10.840;2023-04-24T06:41:02;4.45;;;0.70;;
31308;SDS011;17936;52.446;10.840;2023-04-24T06:43:28;0.88;;;0.60;;
31308;SDS011;17936;52.446;10.840;2023-04-24T06:45:53;4.68;;;0.50;;
31308;SDS011;17936;52.446;10.840;2023-04-24T06:48:19;3.65;;;0.73;;
31308;SDS011;17936;52.446;10.840;2023-04-24T06:50:44;1.10;;;0.60;;
31308;SDS011;17936;52.446;10.840;2023-04-24T06:53:11;1.42;;;0.60;;
31308;SDS011;17936;52.446;10.840;2023-04-24T06:55:39;1.02;;;0.70;;
31308;SDS011;17936;52.446;10.840;2023-04-24T06:58:05;0.73;;;0.60;;
31308;SDS011;17936;52.446;10.840;2023-04-24T07:00:31;1.35;;;0.68;;
31308;SDS011;17936;52.446;10.840;2023-04-24T07:02:56;1.98;;;0.80;;
31308;SDS011;17936;52.446;10.840;2023-04-24T07:05:22;3.63;;;0.60;;
31308;SDS011;17936;52.446;10.840;2023-04-24T07:07:48;5.47;;;0.65;;
31308;SDS011;17936;52.446;10.840;2023-04-24T07:10:14;1.33;;;0.70;;
31308;SDS011;17936;52.446;10.840;2023-04-24T07:12:40;2.38;;;0.65;;
31308;SDS011;17936;52.446;10.840;2023-04-24T07:15:06;1.38;;;0.63;;
31308;SDS011;17936;52.446;10.840;2023-04-24T07:17:33;0.90;;;0.60;;
31308;SDS011;17936;52.446;10.840;2023-04-24T07:19:59;1.80;;;0.60;;
31308;SDS011;17936;52.446;10.840;2023-04-24T07:22:25;1.25;;;0.80;;
31308;SDS011;17936;52.446;10.840;2023-04-24T07:24:51;2.50;;;0.60;;
31308;SDS011;17936;52.446;10.840;2023-04-24T07:27:16;2.08;;;0.70;;
31308;SDS011;17936;52.446;10.840;2023-04-24T07:29:42;1.95;;;0.63;;
31308;SDS011;17936;52.446;10.840;2023-04-24T07:32:07;1.77;;;0.90;;
31308;SDS011;17936;52.446;10.840;2023-04-24T07:34:34;1.48;;;0.80;;
31308;SDS011;17936;52.446;10.840;2023-04-24T07:36:59;1.02;;;0.70;;
31308;SDS011;17936;52.446;10.840;2023-04-24T07:39:25;0.70;;;0.60;;
31308;SDS011;17936;52.446;10.840;2023-04-24T07:41:51;0.82;;;0.75;;
31308;SDS011;17936;52.446;10.840;2023-04-24T07:44:16;4.50;;;0.90;;
31308;SDS011;17936;52.446;10.840;2023-04-24T07:46:42;3.78;;;0.68;;
31308;SDS011;17936;52.446;10.840;2023-04-24T07:49:08;1.77;;;0.70;;
31308;SDS011;17936;52.446;10.840;2023-04-24T07:51:33;1.73;;;0.65;;
31308;SDS011;17936;52.446;10.840;2023-04-24T07:54:03;2.55;;;1.00;;
31308;SDS011;17936;52.446;10.840;2023-04-24T07:56:30;1.35;;;0.90;;
31308;SDS011;17936;52.446;10.840;2023-04-24T07:58:56;2.20;;;0.85;;
31308;SDS011;17936;52.446;10.840;2023-04-24T08:01:21;1.63;;;0.82;;
31308;SDS011;17936;52.446;10.840;2023-04-24T08:03:47;6.22;;;1.00;;
31308;SDS011;17936;52.446;10.840;2023-04-24T08:06:12;1.27;;;0.98;;
31308;SDS011;17936;52.446;10.840;2023-04-24T08:08:38;1.38;;;0.73;;
31308;SDS011;17936;52.446;10.840;2023-04-24T08:11:03;1.48;;;0.50;;
31308;SDS011;17936;52.446;10.840;2023-04-24T08:13:29;2.33;;;0.47;;
31308;SDS011;17936;52.446;10.840;2023-04-24T08:15:54;1.08;;;0.77;;
31308;SDS011;17936;52.446;10.840;2023-04-24T08:18:21;0.65;;;0.47;;
31308;SDS011;17936;52.446;10.840;2023-04-24T08:20:47;2.65;;;0.65;;
31308;SDS011;17936;52.446;10.840;2023-04-24T08:23:13;1.83;;;0.70;;
31308;SDS011;17936;52.446;10.840;2023-04-24T08:25:38;1.65;;;0.70;;
31308;SDS011;17936;52.446;10.840;2023-04-24T08:28:05;3.78;;;0.93;;
31308;SDS011;17936;52.446;10.840;2023-04-24T08:30:33;2.75;;;0.70;;
31308;SDS011;17936;52.446;10.840;2023-04-24T08:32:59;4.05;;;0.80;;
31308;SDS011;17936;52.446;10.840;2023-04-24T08:35:24;1.30;;;0.98;;
31308;SDS011;17936;52.446;10.840;2023-04-24T08:37:52;1.70;;;1.20;;
31308;SDS011;17936;52.446;10.840;2023-04-24T08:40:18;3.40;;;1.27;;
31308;SDS011;17936;52.446;10.840;2023-04-24T08:42:47;2.42;;;1.45;;
31308;SDS011;17936;52.446;10.840;2023-04-24T08:45:18;1.85;;;1.38;;
31308;SDS011;17936;52.446;10.840;2023-04-24T08:47:44;2.00;;;1.50;;
31308;SDS011;17936;52.446;10.840;2023-04-24T08:50:10;2.33;;;1.42;;
31308;SDS011;17936;52.446;10.840;2023-04-24T08:52:37;3.35;;;1.20;;
31308;SDS011;17936;52.446;10.840;2023-04-24T08:55:03;3.97;;;1.50;;
31308;SDS011;17936;52.446;10.840;2023-04-24T08:57:30;2.38;;;1.70;;
31308;SDS011;17936;52.446;10.840;2023-04-24T08:59:57;4.05;;;1.67;;
31308;SDS011;17936;52.446;10.840;2023-04-24T09:02:23;2.55;;;1.40;;
31308;SDS011;17936;52.446;10.840;2023-04-24T09:04:49;3.28;;;1.58;;
31308;SDS011;17936;52.446;10.840;2023-04-24T09:07:16;3.50;;;1.48;;
31308;SDS011;17936;52.446;10.840;2023-04-24T09:09:44;1.80;;;1.40;;
31308;SDS011;17936;52.446;10.840;2023-04-24T09:12:10;1.98;;;1.40;;
31308;SDS011;17936;52.446;10.840;2023-04-24T09:14:36;1.90;;;1.30;;
31308;SDS011;17936;52.446;10.840;2023-04-24T09:17:07;1.67;;;1.23;;
31308;SDS011;17936;52.446;10.840;2023-04-24T09:19:33;2.67;;;1.45;;
31308;SDS011;17936;52.446;10.840;2023-04-24T09:21:58;3.88;;;1.92;;
31308;SDS011;17936;52.446;10.840;2023-04-24T09:24:24;3.13;;;1.48;;
31308;SDS011;17936;52.446;10.840;2023-04-24T09:26:56;4.55;;;1.80;;
31308;SDS011;17936;52.446;10.840;2023-04-24T09:29:29;2.42;;;1.70;;
31308;SDS011;17936;52.446;10.840;2023-04-24T09:31:55;4.53;;;1.58;;
31308;SDS011;17936;52.446;10.840;2023-04-24T09:34:24;3.55;;;1.73;;
31308;SDS011;17936;52.446;10.840;2023-04-24T09:36:51;3.70;;;2.08;;
31308;SDS011;17936;52.446;10.840;2023-04-24T09:39:17;2.75;;;1.95;;
31308;SDS011;17936;52.446;10.840;2023-04-24T09:41:52;5.22;;;2.10;;
31308;SDS011;17936;52.446;10.840;2023-04-24T09:44:25;5.32;;;1.95;;
31308;SDS011;17936;52.446;10.840;2023-04-24T09:46:56;4.32;;;2.33;;
31308;SDS011;17936;52.446;10.840;2023-04-24T09:49:29;4.03;;;2.65;;
31308;SDS011;17936;52.446;10.840;2023-04-24T09:52:05;4.10;;;2.22;;
31308;SDS011;17936;52.446;10.840;2023-04-24T09:54:32;5.30;;;2.60;;
31308;SDS011;17936;52.446;10.840;2023-04-24T09:56:58;5.50;;;2.70;;
31308;SDS011;17936;52.446;10.840;2023-04-24T09:59:24;4.63;;;2.38;;
31308;SDS011;17936;52.446;10.840;2023-04-24T10:01:50;5.65;;;2.83;;
31308;SDS011;17936;52.446;10.840;2023-04-24T10:04:18;5.45;;;3.10;;
31308;SDS011;17936;52.446;10.840;2023-04-24T10:06:47;4.22;;;2.63;;
31308;SDS011;17936;52.446;10.840;2023-04-24T10:09:14;3.90;;;2.38;;
31308;SDS011;17936;52.446;10.840;2023-04-24T10:11:41;3.83;;;2.30;;
31308;SDS011;17936;52.446;10.840;2023-04-24T10:14:11;4.40;;;2.78;;
31308;SDS011;17936;52.446;10.840;2023-04-24T10:16:39;3.03;;;2.03;;
31308;SDS011;17936;52.446;10.840;2023-04-24T10:19:05;5.97;;;1.90;;
31308;SDS011;17936;52.446;10.840;2023-04-24T10:21:31;2.75;;;2.05;;
31308;SDS011;17936;52.446;10.840;2023-04-24T10:23:57;2.80;;;1.98;;
31308;SDS011;17936;52.446;10.840;2023-04-24T10:26:25;3.25;;;2.30;;
31308;SDS011;17936;52.446;10.840;2023-04-24T10:28:52;3.47;;;2.35;;
31308;SDS011;17936;52.446;10.840;2023-04-24T10:31:19;5.90;;;2.65;;
31308;SDS011;17936;52.446;10.840;2023-04-24T10:33:46;3.55;;;2.15;;
31308;SDS011;17936;52.446;10.840;2023-04-24T10:36:13;5.45;;;2.17;;
31308;SDS011;17936;52.446;10.840;2023-04-24T10:38:40;2.55;;;2.00;;
31308;SDS011;17936;52.446;10.840;2023-04-24T10:41:11;2.40;;;1.80;;
31308;SDS011;17936;52.446;10.840;2023-04-24T10:43:44;3.40;;;2.10;;
31308;SDS011;17936;52.446;10.840;2023-04-24T10:46:10;2.88;;;1.80;;
31308;SDS011;17936;52.446;10.840;2023-04-24T10:48:44;2.95;;;1.80;;
31308;SDS011;17936;52.446;10.840;2023-04-24T10:51:19;3.00;;;2.00;;
31308;SDS011;17936;52.446;10.840;2023-04-24T10:53:47;3.63;;;1.65;;
31308;SDS011;17936;52.446;10.840;2023-04-24T10:56:15;2.22;;;1.60;;
31308;SDS011;17936;52.446;10.840;2023-04-24T10:58:45;2.38;;;1.60;;
31308;SDS011;17936;52.446;10.840;2023-04-24T11:01:28;2.90;;;1.58;;
31308;SDS011;17936;52.446;10.840;2023-04-24T11:04:03;4.53;;;1.50;;
31308;SDS011;17936;52.446;10.840;2023-04-24T11:06:29;4.05;;;1.60;;
31308;SDS011;17936;52.446;10.840;2023-04-24T11:09:03;3.65;;;1.70;;
31308;SDS011;17936;52.446;10.840;2023-04-24T11:11:35;6.13;;;1.35;;
31308;SDS011;17936;52.446;10.840;2023-04-24T11:14:05;3.63;;;1.80;;
31308;SDS011;17936;52.446;10.840;2023-04-24T11:16:38;2.53;;;2.20;;
31308;SDS011;17936;52.446;10.840;2023-04-24T11:27:13;3.20;;;1.65;;
31308;SDS011;17936;52.446;10.840;2023-04-24T11:35:00;2.60;;;1.42;;
31308;SDS011;17936;52.446;10.840;2023-04-24T11:37:41;4.65;;;1.60;;
31308;SDS011;17936;52.446;10.840;2023-04-24T11:40:09;3.17;;;1.65;;
31308;SDS011;17936;52.446;10.840;2023-04-24T11:42:37;2.38;;;1.45;;
31308;SDS011;17936;52.446;10.840;2023-04-24T11:45:08;3.17;;;1.60;;
31308;SDS011;17936;52.446;10.840;2023-04-24T11:47:38;4.50;;;1.45;;
31308;SDS011;17936;52.446;10.840;2023-04-24T11:50:05;1.75;;;1.05;;
31308;SDS011;17936;52.446;10.840;2023-04-24T11:52:39;1.33;;;1.00;;
31308;SDS011;17936;52.446;10.840;2023-04-24T11:57:45;2.35;;;1.23;;
31308;SDS011;17936;52.446;10.840;2023-04-24T12:00:17;3.65;;;1.25;;
31308;SDS011;17936;52.446;10.840;2023-04-24T12:02:43;1.77;;;1.05;;
31308;SDS011;17936;52.446;10.840;2023-04-24T12:05:09;2.70;;;1.40;;
31308;SDS011;17936;52.446;10.840;2023-04-24T12:07:43;2.13;;;1.15;;
31308;SDS011;17936;52.446;10.840;2023-04-24T12:10:09;2.05;;;1.23;;
31308;SDS011;17936;52.446;10.840;2023-04-24T12:12:35;1.85;;;1.10;;
31308;SDS011;17936;52.446;10.840;2023-04-24T12:15:01;3.00;;;0.90;;
31308;SDS011;17936;52.446;10.840;2023-04-24T12:17:31;1.67;;;1.08;;
31308;SDS011;17936;52.446;10.840;2023-04-24T12:20:02;1.10;;;0.70;;
31308;SDS011;17936;52.446;10.840;2023-04-24T12:22:49;1.17;;;1.02;;
31308;SDS011;17936;52.446;10.840;2023-04-24T12:25:22;1.17;;;0.80;;
31308;SDS011;17936;52.446;10.840;2023-04-24T12:27:57;1.35;;;1.00;;
31308;SDS011;17936;52.446;10.840;2023-04-24T12:30:41;2.22;;;0.90;;
31308;SDS011;17936;52.446;10.840;2023-04-24T12:33:13;1.30;;;0.77;;
31308;SDS011;17936;52.446;10.840;2023-04-24T12:35:48;1.33;;;1.05;;
31308;SDS011;17936;52.446;10.840;2023-04-24T12:38:16;1.08;;;0.85;;
31308;SDS011;17936;52.446;10.840;2023-04-24T12:40:47;1.15;;;0.90;;
31308;SDS011;17936;52.446;10.840;2023-04-24T12:43:25;1.52;;;0.95;;
31308;SDS011;17936;52.446;10.840;2023-04-24T12:45:51;2.05;;;0.85;;
31308;SDS011;17936;52.446;10.840;2023-04-24T12:48:17;6.90;;;1.20;;
31308;SDS011;17936;52.446;10.840;2023-04-24T12:50:42;2.40;;;1.00;;
31308;SDS011;17936;52.446;10.840;2023-04-24T12:53:08;3.05;;;1.30;;
31308;SDS011;17936;52.446;10.840;2023-04-24T12:55:34;2.90;;;1.05;;
31308;SDS011;17936;52.446;10.840;2023-04-24T12:58:00;2.85;;;1.23;;
31308;SDS011;17936;52.446;10.840;2023-04-24T13:00:26;2.20;;;1.33;;
31308;SDS011;17936;52.446;10.840;2023-04-24T13:02:52;1.33;;;1.05;;
31308;SDS011;17936;52.446;10.840;2023-04-24T13:05:18;2.67;;;0.95;;
31308;SDS011;17936;52.446;10.840;2023-04-24T13:07:43;2.95;;;0.95;;
31308;SDS011;17936;52.446;10.840;2023-04-24T13:10:09;1.63;;;1.00;;
31308;SDS011;17936;52.446;10.840;2023-04-24T13:12:35;1.70;;;1.10;;
31308;SDS011;17936;52.446;10.840;2023-04-24T13:15:00;1.95;;;0.98;;
31308;SDS011;17936;52.446;10.840;2023-04-24T13:17:26;3.80;;;1.10;;
31308;SDS011;17936;52.446;10.840;2023-04-24T13:19:54;1.15;;;0.93;;
31308;SDS011;17936;52.446;10.840;2023-04-24T13:22:20;0.98;;;0.88;;
31308;SDS011;17936;52.446;10.840;2023-04-24T13:24:45;1.90;;;1.00;;
31308;SDS011;17936;52.446;10.840;2023-04-24T13:27:13;3.65;;;1.15;;
31308;SDS011;17936;52.446;10.840;2023-04-24T13:29:39;1.48;;;1.00;;
31308;SDS011;17936;52.446;10.840;2023-04-24T13:32:05;1.88;;;1.00;;
31308;SDS011;17936;52.446;10.840;2023-04-24T13:34:31;1.23;;;0.85;;
31308;SDS011;17936;52.446;10.840;2023-04-24T13:36:57;1.42;;;1.00;;
31308;SDS011;17936;52.446;10.840;2023-04-24T13:39:23;1.38;;;0.80;;
31308;SDS011;17936;52.446;10.840;2023-04-24T13:41:49;0.68;;;0.30;;
31308;SDS011;17936;52.446;10.840;2023-04-24T13:44:16;0.70;;;0.43;;
31308;SDS011;17936;52.446;10.840;2023-04-24T13:46:43;0.50;;;0.40;;
31308;SDS011;17936;52.446;10.840;2023-04-24T13:49:10;5.38;;;0.35;;
31308;SDS011;17936;52.446;10.840;2023-04-24T13:51:37;1.15;;;1.05;;
31308;SDS011;17936;52.446;10.840;2023-04-24T13:54:02;1.52;;;0.73;;
31308;SDS011;17936;52.446;10.840;2023-04-24T13:56:28;2.25;;;0.95;;
31308;SDS011;17936;52.446;10.840;2023-04-24T13:58:54;2.97;;;1.10;;
31308;SDS011;17936;52.446;10.840;2023-04-24T14:01:19;1.95;;;0.95;;
31308;SDS011;17936;52.446;10.840;2023-04-24T14:03:49;1.85;;;1.00;;
31308;SDS011;17936;52.446;10.840;2023-04-24T14:06:14;1.23;;;1.00;;
31308;SDS011;17936;52.446;10.840;2023-04-24T14:08:40;1.02;;;0.68;;
31308;SDS011;17936;52.446;10.840;2023-04-24T14:11:06;1.20;;;0.82;;
31308;SDS011;17936;52.446;10.840;2023-04-24T14:13:31;0.93;;;0.80;;
31308;SDS011;17936;52.446;10.840;2023-04-24T14:15:57;2.08;;;0.90;;
31308;SDS011;17936;52.446;10.840;2023-04-24T14:18:23;1.70;;;1.20;;
31308;SDS011;17936;52.446;10.840;2023-04-24T14:20:48;1.95;;;1.10;;
31308;SDS011;17936;52.446;10.840;2023-04-24T14:23:14;1.10;;;0.90;;
31308;SDS011;17936;52.446;10.840;2023-04-24T14:25:40;1.67;;;0.93;;
31308;SDS011;17936;52.446;10.840;2023-04-24T14:28:06;3.42;;;1.10;;
31308;SDS011;17936;52.446;10.840;2023-04-24T14:30:32;2.85;;;1.40;;
31308;SDS011;17936;52.446;10.840;2023-04-24T14:32:57;1.95;;;1.23;;
31308;SDS011;17936;52.446;10.840;2023-04-24T14:35:23;1.92;;;1.60;;
31308;SDS011;17936;52.446;10.840;2023-04-24T14:37:48;9.10;;;1.27;;
31308;SDS011;17936;52.446;10.840;2023-04-24T14:40:14;2.25;;;1.30;;
31308;SDS011;17936;52.446;10.840;2023-04-24T14:42:40;1.30;;;1.08;;
31308;SDS011;17936;52.446;10.840;2023-04-24T14:45:06;2.70;;;1.15;;
31308;SDS011;17936;52.446;10.840;2023-04-24T14:47:32;1.85;;;1.58;;